sensor_id;sensor_type;location;lat;lon;timestamp;P1;durP1;ratioP1;P2;durP2;ratioP2
45322;SDS011;31382;50.200;8.674;2022-07-23T00:03:47;5.53;;;2.35;;
45322;SDS011;31382;50.200;8.674;2022-07-23T00:08:50;4.18;;;1.67;;
45322;SDS011;31382;50.200;8.674;2022-07-23T00:13:52;4.85;;;1.63;;
45322;SDS011;31382;50.200;8.674;2022-07-23T00:18:56;3.65;;;1.42;;
45322;SDS011;31382;50.200;8.674;2022-07-23T00:23:58;6.55;;;1.52;;
45322;SDS011;31382;50.200;8.674;2022-07-23T00:29:00;3.80;;;1.52;;
45322;SDS011;31382;50.200;8.674;2022-07-23T00:34:02;4.30;;;1.52;;
45322;SDS011;31382;50.200;8.674;2022-07-23T00:39:03;2.67;;;1.50;;
45322;SDS011;31382;50.200;8.674;2022-07-23T00:49:22;5.93;;;1.77;;
45322;SDS011;31382;50.200;8.674;2022-07-23T00:54:26;3.65;;;1.67;;
45322;SDS011;31382;50.200;8.674;2022-07-23T00:59:28;5.28;;;1.65;;
45322;SDS011;31382;50.200;8.674;2022-07-23T01:04:30;9.20;;;2.80;;
45322;SDS011;31382;50.200;8.674;2022-07-23T01:09:32;4.70;;;2.28;;
45322;SDS011;31382;50.200;8.674;2022-07-23T01:14:33;3.70;;;1.73;;
45322;SDS011;31382;50.200;8.674;2022-07-23T01:19:35;7.35;;;2.05;;
45322;SDS011;31382;50.200;8.674;2022-07-23T01:24:37;4.75;;;2.28;;
45322;SDS011;31382;50.200;8.674;2022-07-23T01:29:39;4.78;;;2.13;;
45322;SDS011;31382;50.200;8.674;2022-07-23T01:34:41;5.43;;;2.30;;
45322;SDS011;31382;50.200;8.674;2022-07-23T01:39:42;5.90;;;2.28;;
45322;SDS011;31382;50.200;8.674;2022-07-23T01:44:44;5.40;;;2.00;;
45322;SDS011;31382;50.200;8.674;2022-07-23T01:49:46;4.70;;;2.10;;
45322;SDS011;31382;50.200;8.674;2022-07-23T01:54:47;4.25;;;2.08;;
45322;SDS011;31382;50.200;8.674;2022-07-23T01:59:49;2.47;;;1.73;;
45322;SDS011;31382;50.200;8.674;2022-07-23T02:04:51;3.15;;;1.92;;
45322;SDS011;31382;50.200;8.674;2022-07-23T02:09:52;5.35;;;1.90;;
45322;SDS011;31382;50.200;8.674;2022-07-23T02:14:54;10.13;;;2.22;;
45322;SDS011;31382;50.200;8.674;2022-07-23T02:19:56;2.75;;;1.67;;
45322;SDS011;31382;50.200;8.674;2022-07-23T02:24:58;3.33;;;2.22;;
45322;SDS011;31382;50.200;8.674;2022-07-23T02:30:00;7.22;;;2.42;;
45322;SDS011;31382;50.200;8.674;2022-07-23T02:35:03;5.55;;;2.20;;
45322;SDS011;31382;50.200;8.674;2022-07-23T02:40:05;4.22;;;2.78;;
45322;SDS011;31382;50.200;8.674;2022-07-23T02:45:07;5.50;;;2.08;;
45322;SDS011;31382;50.200;8.674;2022-07-23T02:50:09;4.72;;;2.17;;
45322;SDS011;31382;50.200;8.674;2022-07-23T02:55:13;3.33;;;1.90;;
45322;SDS011;31382;50.200;8.674;2022-07-23T03:00:15;2.85;;;1.98;;
45322;SDS011;31382;50.200;8.674;2022-07-23T03:05:16;13.48;;;2.83;;
45322;SDS011;31382;50.200;8.674;2022-07-23T03:10:18;5.95;;;1.90;;
45322;SDS011;31382;50.200;8.674;2022-07-23T03:15:20;4.38;;;2.08;;
45322;SDS011;31382;50.200;8.674;2022-07-23T03:20:22;6.32;;;2.28;;
45322;SDS011;31382;50.200;8.674;2022-07-23T03:25:23;3.58;;;2.45;;
45322;SDS011;31382;50.200;8.674;2022-07-23T03:30:25;4.13;;;2.28;;
45322;SDS011;31382;50.200;8.674;2022-07-23T03:35:27;4.25;;;2.63;;
45322;SDS011;31382;50.200;8.674;2022-07-23T03:40:28;8.25;;;2.88;;
45322;SDS011;31382;50.200;8.674;2022-07-23T03:45:30;8.77;;;2.72;;
45322;SDS011;31382;50.200;8.674;2022-07-23T03:50:32;8.00;;;2.72;;
45322;SDS011;31382;50.200;8.674;2022-07-23T03:55:35;5.30;;;3.15;;
45322;SDS011;31382;50.200;8.674;2022-07-23T04:00:37;9.40;;;2.90;;
45322;SDS011;31382;50.200;8.674;2022-07-23T04:05:39;4.78;;;2.85;;
45322;SDS011;31382;50.200;8.674;2022-07-23T04:10:40;7.55;;;3.35;;
45322;SDS011;31382;50.200;8.674;2022-07-23T04:15:42;5.80;;;2.92;;
45322;SDS011;31382;50.200;8.674;2022-07-23T04:20:44;4.72;;;3.15;;
45322;SDS011;31382;50.200;8.674;2022-07-23T04:25:46;7.18;;;3.10;;
45322;SDS011;31382;50.200;8.674;2022-07-23T04:30:48;6.25;;;2.83;;
45322;SDS011;31382;50.200;8.674;2022-07-23T04:35:50;8.23;;;3.13;;
45322;SDS011;31382;50.200;8.674;2022-07-23T04:40:53;4.50;;;2.88;;
45322;SDS011;31382;50.200;8.674;2022-07-23T04:45:55;5.97;;;2.83;;
45322;SDS011;31382;50.200;8.674;2022-07-23T04:50:56;6.68;;;3.42;;
45322;SDS011;31382;50.200;8.674;2022-07-23T04:55:58;6.20;;;3.33;;
45322;SDS011;31382;50.200;8.674;2022-07-23T05:01:00;6.45;;;2.53;;
45322;SDS011;31382;50.200;8.674;2022-07-23T05:06:02;5.50;;;2.67;;
45322;SDS011;31382;50.200;8.674;2022-07-23T05:11:04;6.35;;;3.22;;
45322;SDS011;31382;50.200;8.674;2022-07-23T05:16:06;6.88;;;2.55;;
45322;SDS011;31382;50.200;8.674;2022-07-23T05:21:08;8.07;;;2.90;;
45322;SDS011;31382;50.200;8.674;2022-07-23T05:26:10;5.78;;;2.83;;
45322;SDS011;31382;50.200;8.674;2022-07-23T05:31:12;5.85;;;3.20;;
45322;SDS011;31382;50.200;8.674;2022-07-23T05:36:13;5.72;;;3.20;;
45322;SDS011;31382;50.200;8.674;2022-07-23T05:41:15;7.47;;;2.88;;
45322;SDS011;31382;50.200;8.674;2022-07-23T05:46:17;5.72;;;3.05;;
45322;SDS011;31382;50.200;8.674;2022-07-23T05:51:19;6.00;;;2.83;;
45322;SDS011;31382;50.200;8.674;2022-07-23T05:56:24;8.57;;;3.00;;
45322;SDS011;31382;50.200;8.674;2022-07-23T06:01:26;3.65;;;2.20;;
45322;SDS011;31382;50.200;8.674;2022-07-23T06:06:28;3.83;;;2.42;;
45322;SDS011;31382;50.200;8.674;2022-07-23T06:11:30;4.25;;;2.20;;
45322;SDS011;31382;50.200;8.674;2022-07-23T06:16:31;6.63;;;3.03;;
45322;SDS011;31382;50.200;8.674;2022-07-23T06:21:33;6.22;;;2.63;;
45322;SDS011;31382;50.200;8.674;2022-07-23T06:26:47;5.20;;;1.98;;
45322;SDS011;31382;50.200;8.674;2022-07-23T06:31:49;4.93;;;1.75;;
45322;SDS011;31382;50.200;8.674;2022-07-23T06:36:51;3.03;;;1.75;;
45322;SDS011;31382;50.200;8.674;2022-07-23T06:41:52;4.85;;;1.83;;
45322;SDS011;31382;50.200;8.674;2022-07-23T06:47:00;7.20;;;2.25;;
45322;SDS011;31382;50.200;8.674;2022-07-23T06:52:02;6.57;;;1.55;;
45322;SDS011;31382;50.200;8.674;2022-07-23T06:57:04;2.55;;;1.27;;
45322;SDS011;31382;50.200;8.674;2022-07-23T07:02:07;2.55;;;1.50;;
45322;SDS011;31382;50.200;8.674;2022-07-23T07:07:09;6.20;;;1.90;;
45322;SDS011;31382;50.200;8.674;2022-07-23T07:12:11;2.55;;;1.40;;
45322;SDS011;31382;50.200;8.674;2022-07-23T07:17:13;6.68;;;1.52;;
45322;SDS011;31382;50.200;8.674;2022-07-23T07:22:14;6.50;;;1.35;;
45322;SDS011;31382;50.200;8.674;2022-07-23T07:27:16;3.08;;;1.73;;
45322;SDS011;31382;50.200;8.674;2022-07-23T07:32:18;4.65;;;1.58;;
45322;SDS011;31382;50.200;8.674;2022-07-23T07:37:39;3.47;;;1.60;;
45322;SDS011;31382;50.200;8.674;2022-07-23T07:42:48;3.83;;;1.40;;
45322;SDS011;31382;50.200;8.674;2022-07-23T07:47:52;3.78;;;1.45;;
45322;SDS011;31382;50.200;8.674;2022-07-23T07:52:54;3.05;;;1.27;;
45322;SDS011;31382;50.200;8.674;2022-07-23T07:57:55;2.00;;;1.45;;
45322;SDS011;31382;50.200;8.674;2022-07-23T08:02:57;3.08;;;1.67;;
45322;SDS011;31382;50.200;8.674;2022-07-23T08:08:00;5.95;;;1.50;;
45322;SDS011;31382;50.200;8.674;2022-07-23T08:13:02;3.58;;;1.40;;
45322;SDS011;31382;50.200;8.674;2022-07-23T08:18:03;2.30;;;1.27;;
45322;SDS011;31382;50.200;8.674;2022-07-23T08:23:06;3.88;;;1.73;;
45322;SDS011;31382;50.200;8.674;2022-07-23T08:28:09;3.70;;;1.65;;
45322;SDS011;31382;50.200;8.674;2022-07-23T08:33:16;2.20;;;1.27;;
45322;SDS011;31382;50.200;8.674;2022-07-23T08:38:31;3.50;;;1.45;;
45322;SDS011;31382;50.200;8.674;2022-07-23T08:43:33;7.40;;;1.98;;
45322;SDS011;31382;50.200;8.674;2022-07-23T08:48:36;2.78;;;2.05;;
45322;SDS011;31382;50.200;8.674;2022-07-23T08:53:40;3.95;;;1.70;;
45322;SDS011;31382;50.200;8.674;2022-07-23T08:58:42;4.97;;;1.58;;
45322;SDS011;31382;50.200;8.674;2022-07-23T09:03:44;3.10;;;1.45;;
45322;SDS011;31382;50.200;8.674;2022-07-23T09:08:46;1.77;;;1.15;;
45322;SDS011;31382;50.200;8.674;2022-07-23T09:13:49;2.38;;;1.42;;
45322;SDS011;31382;50.200;8.674;2022-07-23T09:18:54;3.20;;;1.63;;
45322;SDS011;31382;50.200;8.674;2022-07-23T09:29:16;4.38;;;1.27;;
45322;SDS011;31382;50.200;8.674;2022-07-23T09:39:29;1.60;;;1.08;;
45322;SDS011;31382;50.200;8.674;2022-07-23T09:44:32;1.65;;;1.02;;
45322;SDS011;31382;50.200;8.674;2022-07-23T09:55:18;4.40;;;1.20;;
45322;SDS011;31382;50.200;8.674;2022-07-23T10:00:20;3.53;;;1.30;;
45322;SDS011;31382;50.200;8.674;2022-07-23T10:05:21;4.32;;;1.38;;
45322;SDS011;31382;50.200;8.674;2022-07-23T10:10:25;3.47;;;1.38;;
45322;SDS011;31382;50.200;8.674;2022-07-23T10:15:28;4.10;;;1.13;;
45322;SDS011;31382;50.200;8.674;2022-07-23T10:20:30;1.63;;;0.82;;
45322;SDS011;31382;50.200;8.674;2022-07-23T10:25:35;3.42;;;1.20;;
45322;SDS011;31382;50.200;8.674;2022-07-23T10:36:19;2.75;;;1.08;;
45322;SDS011;31382;50.200;8.674;2022-07-23T10:41:35;1.90;;;0.70;;
45322;SDS011;31382;50.200;8.674;2022-07-23T10:46:53;1.92;;;1.17;;
45322;SDS011;31382;50.200;8.674;2022-07-23T10:57:16;4.65;;;1.10;;
45322;SDS011;31382;50.200;8.674;2022-07-23T11:02:20;2.47;;;1.48;;
45322;SDS011;31382;50.200;8.674;2022-07-23T11:07:24;2.60;;;1.10;;
45322;SDS011;31382;50.200;8.674;2022-07-23T11:17:30;1.43;;;1.30;;
45322;SDS011;31382;50.200;8.674;2022-07-23T11:22:56;2.22;;;2.03;;
45322;SDS011;31382;50.200;8.674;2022-07-23T11:28:17;1.88;;;1.23;;
45322;SDS011;31382;50.200;8.674;2022-07-23T11:33:22;2.60;;;1.38;;
45322;SDS011;31382;50.200;8.674;2022-07-23T11:38:24;3.85;;;0.90;;
45322;SDS011;31382;50.200;8.674;2022-07-23T11:43:25;4.20;;;1.00;;
45322;SDS011;31382;50.200;8.674;2022-07-23T11:48:28;3.20;;;0.93;;
45322;SDS011;31382;50.200;8.674;2022-07-23T11:53:32;5.82;;;1.17;;
45322;SDS011;31382;50.200;8.674;2022-07-23T11:58:35;2.10;;;1.17;;
45322;SDS011;31382;50.200;8.674;2022-07-23T12:03:39;1.55;;;1.20;;
45322;SDS011;31382;50.200;8.674;2022-07-23T12:13:57;6.18;;;1.30;;
45322;SDS011;31382;50.200;8.674;2022-07-23T12:18:59;2.35;;;1.33;;
45322;SDS011;31382;50.200;8.674;2022-07-23T12:24:07;2.28;;;1.00;;
45322;SDS011;31382;50.200;8.674;2022-07-23T12:29:10;2.20;;;1.42;;
45322;SDS011;31382;50.200;8.674;2022-07-23T12:34:14;1.98;;;1.15;;
45322;SDS011;31382;50.200;8.674;2022-07-23T12:44:31;3.80;;;1.25;;
45322;SDS011;31382;50.200;8.674;2022-07-23T12:49:39;2.88;;;1.20;;
45322;SDS011;31382;50.200;8.674;2022-07-23T12:54:41;1.50;;;1.00;;
45322;SDS011;31382;50.200;8.674;2022-07-23T12:59:43;3.53;;;1.58;;
45322;SDS011;31382;50.200;8.674;2022-07-23T13:04:44;2.65;;;1.50;;
45322;SDS011;31382;50.200;8.674;2022-07-23T13:09:46;2.00;;;1.30;;
45322;SDS011;31382;50.200;8.674;2022-07-23T13:14:48;2.25;;;1.58;;
45322;SDS011;31382;50.200;8.674;2022-07-23T13:19:49;3.17;;;1.38;;
45322;SDS011;31382;50.200;8.674;2022-07-23T13:24:51;4.07;;;1.35;;
45322;SDS011;31382;50.200;8.674;2022-07-23T13:29:53;1.85;;;1.35;;
45322;SDS011;31382;50.200;8.674;2022-07-23T13:34:55;2.85;;;1.63;;
45322;SDS011;31382;50.200;8.674;2022-07-23T13:39:57;2.97;;;1.58;;
45322;SDS011;31382;50.200;8.674;2022-07-23T13:44:59;3.67;;;1.50;;
45322;SDS011;31382;50.200;8.674;2022-07-23T13:50:00;4.40;;;1.85;;
45322;SDS011;31382;50.200;8.674;2022-07-23T13:55:03;3.15;;;1.70;;
45322;SDS011;31382;50.200;8.674;2022-07-23T14:00:06;3.22;;;1.30;;
45322;SDS011;31382;50.200;8.674;2022-07-23T14:05:30;2.47;;;1.10;;
45322;SDS011;31382;50.200;8.674;2022-07-23T14:10:34;3.30;;;1.80;;
45322;SDS011;31382;50.200;8.674;2022-07-23T14:15:38;2.60;;;1.48;;
45322;SDS011;31382;50.200;8.674;2022-07-23T14:20:41;6.55;;;2.10;;
45322;SDS011;31382;50.200;8.674;2022-07-23T14:25:43;3.88;;;1.45;;
45322;SDS011;31382;50.200;8.674;2022-07-23T14:30:47;4.70;;;1.33;;
45322;SDS011;31382;50.200;8.674;2022-07-23T14:35:49;4.57;;;1.58;;
45322;SDS011;31382;50.200;8.674;2022-07-23T14:40:51;1.75;;;1.35;;
45322;SDS011;31382;50.200;8.674;2022-07-23T14:45:52;4.50;;;1.45;;
45322;SDS011;31382;50.200;8.674;2022-07-23T14:50:54;3.83;;;1.60;;
45322;SDS011;31382;50.200;8.674;2022-07-23T14:55:56;2.85;;;1.52;;
45322;SDS011;31382;50.200;8.674;2022-07-23T15:00:58;5.60;;;1.85;;
45322;SDS011;31382;50.200;8.674;2022-07-23T15:06:00;2.42;;;1.52;;
45322;SDS011;31382;50.200;8.674;2022-07-23T15:11:02;3.55;;;1.35;;
45322;SDS011;31382;50.200;8.674;2022-07-23T15:16:04;2.05;;;1.05;;
45322;SDS011;31382;50.200;8.674;2022-07-23T15:21:07;3.40;;;1.50;;
45322;SDS011;31382;50.200;8.674;2022-07-23T15:26:09;1.42;;;0.90;;
45322;SDS011;31382;50.200;8.674;2022-07-23T15:31:12;2.13;;;1.30;;
45322;SDS011;31382;50.200;8.674;2022-07-23T15:36:14;3.30;;;0.80;;
45322;SDS011;31382;50.200;8.674;2022-07-23T15:41:20;2.95;;;0.95;;
45322;SDS011;31382;50.200;8.674;2022-07-23T15:46:24;5.80;;;0.90;;
45322;SDS011;31382;50.200;8.674;2022-07-23T15:51:27;1.70;;;0.90;;
45322;SDS011;31382;50.200;8.674;2022-07-23T15:56:31;1.90;;;0.95;;
45322;SDS011;31382;50.200;8.674;2022-07-23T16:01:33;1.58;;;0.70;;
45322;SDS011;31382;50.200;8.674;2022-07-23T16:06:35;2.60;;;1.08;;
45322;SDS011;31382;50.200;8.674;2022-07-23T16:11:36;1.60;;;1.00;;
45322;SDS011;31382;50.200;8.674;2022-07-23T16:16:39;2.50;;;1.02;;
45322;SDS011;31382;50.200;8.674;2022-07-23T16:21:41;1.92;;;0.80;;
45322;SDS011;31382;50.200;8.674;2022-07-23T16:26:43;1.17;;;0.75;;
45322;SDS011;31382;50.200;8.674;2022-07-23T16:31:45;1.65;;;0.70;;
45322;SDS011;31382;50.200;8.674;2022-07-23T16:36:47;2.60;;;1.00;;
45322;SDS011;31382;50.200;8.674;2022-07-23T16:41:49;3.53;;;0.88;;
45322;SDS011;31382;50.200;8.674;2022-07-23T16:46:50;3.92;;;0.80;;
45322;SDS011;31382;50.200;8.674;2022-07-23T16:51:52;2.13;;;1.00;;
45322;SDS011;31382;50.200;8.674;2022-07-23T16:56:54;4.70;;;1.00;;
45322;SDS011;31382;50.200;8.674;2022-07-23T17:01:56;3.65;;;1.10;;
45322;SDS011;31382;50.200;8.674;2022-07-23T17:06:57;1.20;;;1.00;;
45322;SDS011;31382;50.200;8.674;2022-07-23T17:12:03;3.88;;;0.90;;
45322;SDS011;31382;50.200;8.674;2022-07-23T17:17:05;3.20;;;0.75;;
45322;SDS011;31382;50.200;8.674;2022-07-23T17:22:08;2.00;;;0.95;;
45322;SDS011;31382;50.200;8.674;2022-07-23T17:27:09;2.45;;;0.70;;
45322;SDS011;31382;50.200;8.674;2022-07-23T17:32:11;2.85;;;0.70;;
45322;SDS011;31382;50.200;8.674;2022-07-23T17:37:13;1.70;;;0.77;;
45322;SDS011;31382;50.200;8.674;2022-07-23T17:42:15;1.77;;;1.10;;
45322;SDS011;31382;50.200;8.674;2022-07-23T17:47:17;3.30;;;0.80;;
45322;SDS011;31382;50.200;8.674;2022-07-23T17:52:18;1.65;;;0.70;;
45322;SDS011;31382;50.200;8.674;2022-07-23T17:57:20;1.73;;;0.80;;
45322;SDS011;31382;50.200;8.674;2022-07-23T18:02:22;5.03;;;0.90;;
45322;SDS011;31382;50.200;8.674;2022-07-23T18:07:23;1.65;;;0.88;;
45322;SDS011;31382;50.200;8.674;2022-07-23T18:12:26;1.30;;;0.93;;
45322;SDS011;31382;50.200;8.674;2022-07-23T18:17:27;2.15;;;1.13;;
45322;SDS011;31382;50.200;8.674;2022-07-23T18:22:29;2.60;;;1.10;;
45322;SDS011;31382;50.200;8.674;2022-07-23T18:27:31;5.35;;;1.08;;
45322;SDS011;31382;50.200;8.674;2022-07-23T18:32:34;3.22;;;1.27;;
45322;SDS011;31382;50.200;8.674;2022-07-23T18:37:37;3.58;;;1.08;;
45322;SDS011;31382;50.200;8.674;2022-07-23T18:42:38;2.85;;;1.50;;
45322;SDS011;31382;50.200;8.674;2022-07-23T18:47:40;4.28;;;1.20;;
45322;SDS011;31382;50.200;8.674;2022-07-23T18:52:42;3.63;;;0.95;;
45322;SDS011;31382;50.200;8.674;2022-07-23T18:57:44;5.22;;;2.33;;
45322;SDS011;31382;50.200;8.674;2022-07-23T19:02:46;2.00;;;1.58;;
45322;SDS011;31382;50.200;8.674;2022-07-23T19:07:47;5.15;;;1.02;;
45322;SDS011;31382;50.200;8.674;2022-07-23T19:12:49;2.78;;;1.08;;
45322;SDS011;31382;50.200;8.674;2022-07-23T19:17:51;3.45;;;1.30;;
45322;SDS011;31382;50.200;8.674;2022-07-23T19:22:53;5.93;;;1.63;;
45322;SDS011;31382;50.200;8.674;2022-07-23T19:27:54;2.55;;;1.20;;
45322;SDS011;31382;50.200;8.674;2022-07-23T19:32:56;3.15;;;1.55;;
45322;SDS011;31382;50.200;8.674;2022-07-23T19:37:58;4.80;;;2.08;;
45322;SDS011;31382;50.200;8.674;2022-07-23T19:42:59;6.40;;;2.58;;
45322;SDS011;31382;50.200;8.674;2022-07-23T19:48:01;4.32;;;2.40;;
45322;SDS011;31382;50.200;8.674;2022-07-23T19:53:03;2.92;;;1.63;;
45322;SDS011;31382;50.200;8.674;2022-07-23T19:58:05;2.13;;;1.20;;
45322;SDS011;31382;50.200;8.674;2022-07-23T20:03:08;17.63;;;2.08;;
45322;SDS011;31382;50.200;8.674;2022-07-23T20:08:09;5.85;;;2.20;;
45322;SDS011;31382;50.200;8.674;2022-07-23T20:13:19;5.07;;;2.03;;
45322;SDS011;31382;50.200;8.674;2022-07-23T20:18:21;5.88;;;3.50;;
45322;SDS011;31382;50.200;8.674;2022-07-23T20:23:22;3.92;;;2.40;;
45322;SDS011;31382;50.200;8.674;2022-07-23T20:28:25;4.05;;;2.00;;
45322;SDS011;31382;50.200;8.674;2022-07-23T20:33:27;6.10;;;2.15;;
45322;SDS011;31382;50.200;8.674;2022-07-23T20:38:35;3.58;;;1.27;;
45322;SDS011;31382;50.200;8.674;2022-07-23T20:43:36;1.92;;;1.35;;
45322;SDS011;31382;50.200;8.674;2022-07-23T20:48:38;4.72;;;1.60;;
45322;SDS011;31382;50.200;8.674;2022-07-23T20:53:40;7.70;;;1.48;;
45322;SDS011;31382;50.200;8.674;2022-07-23T20:58:42;6.90;;;1.90;;
45322;SDS011;31382;50.200;8.674;2022-07-23T21:03:44;3.83;;;1.52;;
45322;SDS011;31382;50.200;8.674;2022-07-23T21:08:46;5.63;;;1.20;;
45322;SDS011;31382;50.200;8.674;2022-07-23T21:13:47;3.28;;;1.45;;
45322;SDS011;31382;50.200;8.674;2022-07-23T21:18:49;6.47;;;1.67;;
45322;SDS011;31382;50.200;8.674;2022-07-23T21:23:51;2.20;;;1.15;;
45322;SDS011;31382;50.200;8.674;2022-07-23T21:28:53;2.85;;;1.20;;
45322;SDS011;31382;50.200;8.674;2022-07-23T21:33:54;5.45;;;1.05;;
45322;SDS011;31382;50.200;8.674;2022-07-23T21:38:56;2.97;;;1.10;;
45322;SDS011;31382;50.200;8.674;2022-07-23T21:43:58;1.38;;;1.10;;
45322;SDS011;31382;50.200;8.674;2022-07-23T21:49:01;1.52;;;1.15;;
45322;SDS011;31382;50.200;8.674;2022-07-23T21:54:04;1.58;;;1.20;;
45322;SDS011;31382;50.200;8.674;2022-07-23T21:59:07;2.30;;;1.27;;
45322;SDS011;31382;50.200;8.674;2022-07-23T22:04:09;2.20;;;1.00;;
45322;SDS011;31382;50.200;8.674;2022-07-23T22:09:10;3.47;;;1.27;;
45322;SDS011;31382;50.200;8.674;2022-07-23T22:14:12;2.40;;;1.50;;
45322;SDS011;31382;50.200;8.674;2022-07-23T22:19:14;6.65;;;1.25;;
45322;SDS011;31382;50.200;8.674;2022-07-23T22:24:16;4.40;;;1.17;;
45322;SDS011;31382;50.200;8.674;2022-07-23T22:29:19;2.25;;;1.10;;
45322;SDS011;31382;50.200;8.674;2022-07-23T22:34:23;1.75;;;1.02;;
45322;SDS011;31382;50.200;8.674;2022-07-23T22:39:25;2.72;;;0.95;;
45322;SDS011;31382;50.200;8.674;2022-07-23T22:44:26;4.47;;;1.23;;
45322;SDS011;31382;50.200;8.674;2022-07-23T22:49:28;3.30;;;0.88;;
45322;SDS011;31382;50.200;8.674;2022-07-23T22:54:31;2.15;;;0.80;;
45322;SDS011;31382;50.200;8.674;2022-07-23T22:59:33;1.65;;;0.93;;
45322;SDS011;31382;50.200;8.674;2022-07-23T23:04:35;2.80;;;0.98;;
45322;SDS011;31382;50.200;8.674;2022-07-23T23:09:37;3.33;;;1.10;;
45322;SDS011;31382;50.200;8.674;2022-07-23T23:14:39;3.90;;;1.02;;
45322;SDS011;31382;50.200;8.674;2022-07-23T23:19:40;2.15;;;0.88;;
45322;SDS011;31382;50.200;8.674;2022-07-23T23:24:42;1.23;;;0.80;;
45322;SDS011;31382;50.200;8.674;2022-07-23T23:29:44;1.50;;;0.85;;
45322;SDS011;31382;50.200;8.674;2022-07-23T23:34:50;4.80;;;0.73;;
45322;SDS011;31382;50.200;8.674;2022-07-23T23:39:51;2.95;;;0.80;;
45322;SDS011;31382;50.200;8.674;2022-07-23T23:44:53;2.92;;;1.10;;
45322;SDS011;31382;50.200;8.674;2022-07-23T23:49:55;2.78;;;0.70;;
45322;SDS011;31382;50.200;8.674;2022-07-23T23:54:57;1.10;;;0.70;;
45322;SDS011;31382;50.200;8.674;2022-07-23T23:59:58;1.67;;;1.17;;
